createdAt,value
2022-12-18T00:01:34.265Z,8.85
2022-12-18T00:04:09.016Z,8.32
2022-12-18T00:06:36.847Z,8.20
2022-12-18T00:09:04.598Z,9.07
2022-12-18T00:11:32.836Z,7.70
2022-12-18T00:14:01.078Z,8.85
2022-12-18T00:16:31.281Z,8.05
2022-12-18T00:18:59.372Z,8.90
2022-12-18T00:21:28.194Z,9.37
2022-12-18T00:23:56.273Z,8.77
2022-12-18T00:26:26.670Z,8.70
2022-12-18T00:28:56.706Z,7.15
2022-12-18T00:31:25.858Z,8.15
2022-12-18T00:33:58.273Z,7.57
2022-12-18T00:36:28.741Z,7.80
2022-12-18T00:38:59.206Z,8.38
2022-12-18T00:41:46.247Z,9.00
2022-12-18T00:44:16.078Z,9.40
2022-12-18T00:46:44.690Z,8.63
2022-12-18T00:49:14.341Z,9.20
2022-12-18T00:51:41.893Z,8.60
2022-12-18T00:54:11.339Z,7.97
2022-12-18T00:56:48.267Z,8.38
2022-12-18T00:59:18.412Z,9.30
2022-12-18T01:01:47.128Z,8.40
2022-12-18T01:04:15.571Z,10.05
2022-12-18T01:06:46.249Z,8.55
2022-12-18T01:09:13.737Z,8.60
2022-12-18T01:11:41.353Z,7.87
2022-12-18T01:14:09.183Z,8.50
2022-12-18T01:16:38.618Z,10.13
2022-12-18T01:19:06.142Z,9.13
2022-12-18T01:21:34.874Z,8.75
2022-12-18T01:24:05.424Z,9.20
2022-12-18T01:26:32.910Z,8.05
2022-12-18T01:29:00.776Z,7.70
2022-12-18T01:31:32.036Z,8.10
2022-12-18T01:34:02.273Z,7.45
2022-12-18T01:36:35.440Z,8.00
2022-12-18T01:39:08.689Z,7.82
2022-12-18T01:41:55.028Z,8.57
2022-12-18T01:44:56.687Z,7.12
2022-12-18T01:47:28.139Z,8.20
2022-12-18T01:49:57.936Z,7.23
2022-12-18T01:52:29.252Z,7.37
2022-12-18T01:54:57.615Z,7.80
2022-12-18T01:57:28.151Z,8.00
2022-12-18T02:00:00.755Z,8.18
2022-12-18T02:02:30.138Z,7.47
2022-12-18T02:05:00.096Z,6.85
2022-12-18T02:07:38.941Z,7.82
2022-12-18T02:10:14.872Z,7.78
2022-12-18T02:13:14.882Z,8.63
2022-12-18T02:16:00.478Z,9.90
2022-12-18T02:18:39.446Z,8.10
2022-12-18T02:21:09.484Z,8.75
2022-12-18T02:23:37.573Z,7.32
2022-12-18T02:26:10.809Z,7.22
2022-12-18T02:29:04.443Z,7.00
2022-12-18T02:31:39.067Z,8.30
2022-12-18T02:34:10.841Z,8.35
2022-12-18T02:36:43.583Z,9.23
2022-12-18T02:39:13.362Z,7.97
2022-12-18T02:41:42.962Z,8.67
2022-12-18T02:44:13.941Z,7.47
2022-12-18T02:46:46.491Z,8.02
2022-12-18T02:49:41.745Z,8.02
2022-12-18T02:52:47.266Z,6.65
2022-12-18T02:55:59.842Z,7.40
2022-12-18T02:58:27.213Z,7.28
2022-12-18T03:01:08.693Z,9.00
2022-12-18T03:03:45.354Z,7.75
2022-12-18T03:06:25.040Z,9.25
2022-12-18T03:08:59.273Z,7.27
2022-12-18T03:11:50.970Z,7.68
2022-12-18T03:14:21.969Z,9.00
2022-12-18T03:16:53.493Z,7.97
2022-12-18T03:19:26.079Z,8.60
2022-12-18T03:21:57.226Z,7.57
2022-12-18T03:24:29.025Z,7.22
2022-12-18T03:27:03.584Z,8.45
2022-12-18T03:29:35.136Z,8.77
2022-12-18T03:32:11.599Z,6.97
2022-12-18T03:34:42.437Z,7.53
2022-12-18T03:37:10.986Z,7.65
2022-12-18T03:39:38.930Z,8.68
2022-12-18T03:42:16.782Z,9.25
2022-12-18T03:45:04.844Z,8.80
2022-12-18T03:47:51.537Z,7.40
2022-12-18T03:50:28.326Z,7.05
2022-12-18T03:53:03.329Z,7.97
2022-12-18T03:55:35.801Z,6.30
2022-12-18T03:58:07.245Z,7.47
2022-12-18T04:00:38.774Z,7.63
2022-12-18T04:03:09.594Z,8.07
2022-12-18T04:05:38.570Z,6.78
2022-12-18T04:08:07.210Z,7.97
2022-12-18T04:10:37.344Z,7.15
2022-12-18T04:13:04.929Z,8.60
2022-12-18T04:15:37.868Z,7.70
2022-12-18T04:18:05.705Z,8.00
2022-12-18T04:20:33.885Z,7.15
2022-12-18T04:23:01.941Z,5.70
2022-12-18T04:25:30.142Z,7.83
2022-12-18T04:27:59.108Z,7.40
2022-12-18T04:30:26.521Z,6.43
2022-12-18T04:32:53.963Z,6.95
2022-12-18T04:35:22.671Z,7.78
2022-12-18T04:37:50.444Z,7.17
2022-12-18T04:40:17.974Z,7.12
2022-12-18T04:42:46.806Z,7.15
2022-12-18T04:45:14.383Z,5.72
2022-12-18T04:47:41.824Z,6.47
2022-12-18T04:50:09.685Z,6.90
2022-12-18T04:52:37.390Z,6.90
2022-12-18T04:55:05.114Z,6.85
2022-12-18T04:57:32.874Z,6.32
2022-12-18T05:00:00.277Z,6.93
2022-12-18T05:02:27.760Z,7.27
2022-12-18T05:04:55.554Z,6.62
2022-12-18T05:07:23.014Z,6.62
2022-12-18T05:09:50.430Z,6.20
2022-12-18T05:12:18.121Z,6.40
2022-12-18T05:14:45.609Z,5.80
2022-12-18T05:17:13.334Z,6.20
2022-12-18T05:19:41.042Z,7.18
2022-12-18T05:22:08.932Z,7.30
2022-12-18T05:24:36.754Z,6.68
2022-12-18T05:27:05.014Z,6.33
2022-12-18T05:29:32.489Z,7.10
2022-12-18T05:31:59.926Z,7.45
2022-12-18T05:34:27.620Z,7.00
2022-12-18T05:36:55.055Z,6.28
2022-12-18T05:39:22.433Z,6.67
2022-12-18T05:41:50.113Z,6.55
2022-12-18T05:44:17.490Z,6.85
2022-12-18T05:46:44.970Z,6.43
2022-12-18T05:49:12.700Z,5.97
2022-12-18T05:51:40.099Z,6.13
2022-12-18T05:54:08.790Z,6.45
2022-12-18T05:56:36.554Z,6.18
2022-12-18T05:59:04.019Z,5.93
2022-12-18T06:01:31.571Z,6.43
2022-12-18T06:04:00.085Z,6.10
2022-12-18T06:06:29.862Z,5.93
2022-12-18T06:08:58.085Z,5.97
2022-12-18T06:11:27.583Z,6.32
2022-12-18T06:13:59.068Z,6.12
2022-12-18T06:16:30.965Z,6.67
2022-12-18T06:18:59.991Z,5.68
2022-12-18T06:21:28.801Z,5.90
2022-12-18T06:23:56.212Z,6.65
2022-12-18T06:26:28.063Z,7.03
2022-12-18T06:28:56.438Z,5.70
2022-12-18T06:31:24.199Z,7.20
2022-12-18T06:33:51.644Z,6.57
2022-12-18T06:36:19.489Z,7.47
2022-12-18T06:38:46.949Z,6.12
2022-12-18T06:41:19.705Z,6.50
2022-12-18T06:43:47.894Z,6.70
2022-12-18T06:46:15.605Z,6.40
2022-12-18T06:48:43.441Z,6.40
2022-12-18T06:51:11.147Z,6.15
2022-12-18T06:53:38.815Z,6.33
2022-12-18T06:56:10.516Z,6.75
2022-12-18T06:58:40.308Z,5.85
2022-12-18T07:01:11.463Z,6.53
2022-12-18T07:03:41.898Z,5.68
2022-12-18T07:06:21.443Z,7.40
2022-12-18T07:08:50.501Z,6.80
2022-12-18T07:11:19.002Z,6.53
2022-12-18T07:13:47.346Z,6.78
2022-12-18T07:16:24.334Z,6.12
2022-12-18T07:18:55.073Z,6.03
2022-12-18T07:21:24.411Z,6.35
2022-12-18T07:23:52.157Z,6.65
2022-12-18T07:26:21.729Z,6.95
2022-12-18T07:28:50.306Z,6.97
2022-12-18T07:31:21.607Z,6.73
2022-12-18T07:33:50.902Z,8.02
2022-12-18T07:36:18.618Z,8.18
2022-12-18T07:38:49.120Z,7.97
2022-12-18T07:41:17.413Z,8.43
2022-12-18T07:43:45.134Z,8.53
2022-12-18T07:46:17.103Z,8.82
2022-12-18T07:48:50.086Z,9.98
2022-12-18T07:51:18.895Z,8.98
2022-12-18T07:53:46.790Z,9.20
2022-12-18T07:56:30.093Z,9.80
2022-12-18T07:59:00.112Z,10.85
2022-12-18T08:01:28.228Z,10.50
2022-12-18T08:03:56.254Z,11.30
2022-12-18T08:06:24.510Z,11.38
2022-12-18T08:08:56.552Z,11.43
2022-12-18T08:11:26.764Z,12.35
2022-12-18T08:13:54.724Z,13.30
2022-12-18T08:16:23.429Z,14.05
2022-12-18T08:18:53.390Z,13.65
2022-12-18T08:21:24.662Z,15.40
2022-12-18T08:23:54.406Z,13.75
2022-12-18T08:26:22.715Z,15.43
2022-12-18T08:28:51.311Z,14.20
2022-12-18T08:31:19.823Z,13.43
2022-12-18T08:33:53.324Z,10.60
2022-12-18T08:36:21.683Z,12.40
2022-12-18T08:38:49.287Z,11.07
2022-12-18T08:41:17.937Z,9.52
2022-12-18T08:44:04.959Z,9.85
2022-12-18T08:46:42.099Z,9.27
2022-12-18T08:49:11.456Z,10.05
2022-12-18T08:51:39.781Z,8.25
2022-12-18T08:54:07.918Z,8.10
2022-12-18T08:56:36.174Z,8.18
2022-12-18T08:59:03.826Z,8.53
2022-12-18T09:01:31.725Z,8.05
2022-12-18T09:04:00.166Z,9.45
2022-12-18T09:06:27.681Z,8.95
2022-12-18T09:08:55.168Z,9.05
2022-12-18T09:11:25.750Z,8.93
2022-12-18T09:13:54.959Z,8.57
2022-12-18T09:16:27.410Z,8.45
2022-12-18T09:19:00.723Z,8.95
2022-12-18T09:21:31.353Z,9.38
2022-12-18T09:24:00.355Z,7.43
2022-12-18T09:26:28.409Z,9.00
2022-12-18T09:28:56.910Z,8.18
2022-12-18T09:31:25.715Z,6.55
2022-12-18T09:33:53.551Z,7.15
2022-12-18T09:36:21.023Z,6.50
2022-12-18T09:38:49.307Z,7.28
2022-12-18T09:41:35.965Z,7.07
2022-12-18T09:44:26.048Z,6.80
2022-12-18T09:46:56.898Z,6.20
2022-12-18T09:49:30.342Z,6.23
2022-12-18T09:52:09.677Z,6.75
2022-12-18T09:54:40.958Z,6.82
2022-12-18T09:57:20.596Z,7.45
2022-12-18T09:59:54.618Z,7.43
2022-12-18T10:02:25.573Z,6.40
2022-12-18T10:05:07.030Z,6.28
2022-12-18T10:07:43.592Z,6.22
2022-12-18T10:10:30.478Z,7.47
2022-12-18T10:13:08.359Z,7.25
2022-12-18T10:16:17.358Z,6.90
2022-12-18T10:19:02.106Z,6.25
2022-12-18T10:21:35.835Z,7.55
2022-12-18T10:24:06.114Z,6.65
2022-12-18T10:26:34.093Z,6.65
2022-12-18T10:29:05.709Z,6.33
2022-12-18T10:31:33.692Z,6.12
2022-12-18T10:34:01.466Z,6.47
2022-12-18T10:36:29.038Z,7.18
2022-12-18T10:39:17.025Z,6.62
2022-12-18T10:41:44.709Z,7.07
2022-12-18T10:44:21.388Z,6.75
2022-12-18T10:46:57.110Z,6.47
2022-12-18T10:49:29.044Z,7.15
2022-12-18T10:52:16.477Z,7.43
2022-12-18T10:54:59.990Z,7.10
2022-12-18T10:57:27.329Z,7.25
2022-12-18T10:59:57.283Z,7.15
2022-12-18T11:02:35.406Z,7.68
2022-12-18T11:05:06.346Z,8.65
2022-12-18T11:07:51.222Z,7.47
2022-12-18T11:10:20.736Z,7.28
2022-12-18T11:12:49.049Z,8.43
2022-12-18T11:15:30.779Z,7.18
2022-12-18T11:17:59.279Z,7.53
2022-12-18T11:20:36.890Z,9.37
2022-12-18T11:23:13.137Z,9.57
2022-12-18T11:25:40.857Z,9.73
2022-12-18T11:28:37.062Z,9.88
2022-12-18T11:31:28.818Z,9.02
2022-12-18T11:34:34.352Z,8.73
2022-12-18T11:37:04.593Z,9.18
2022-12-18T11:39:40.299Z,8.73
2022-12-18T11:42:21.485Z,8.50
2022-12-18T11:44:59.430Z,8.93
2022-12-18T11:47:39.734Z,8.77
2022-12-18T11:50:40.054Z,8.35
2022-12-18T11:53:12.135Z,9.20
2022-12-18T11:55:58.015Z,8.27
2022-12-18T11:58:48.429Z,9.05
2022-12-18T12:01:38.971Z,7.70
2022-12-18T12:04:32.642Z,9.23
2022-12-18T12:07:12.276Z,8.13
2022-12-18T12:10:03.847Z,8.30
2022-12-18T12:12:51.085Z,9.40
2022-12-18T12:15:28.714Z,7.77
2022-12-18T12:18:21.947Z,9.00
2022-12-18T12:21:23.358Z,8.20
2022-12-18T12:24:15.019Z,9.13
2022-12-18T12:26:42.679Z,9.15
2022-12-18T12:29:28.743Z,8.83
2022-12-18T12:32:08.433Z,9.15
2022-12-18T12:34:51.743Z,9.40
2022-12-18T12:37:38.355Z,9.25
2022-12-18T12:40:26.937Z,9.50
2022-12-18T12:43:14.522Z,9.00
2022-12-18T12:45:56.973Z,8.60
2022-12-18T12:48:40.259Z,9.82
2022-12-18T12:51:14.046Z,9.05
2022-12-18T12:53:42.942Z,8.60
2022-12-18T12:56:14.239Z,8.80
2022-12-18T12:59:00.290Z,8.75
2022-12-18T13:01:43.198Z,8.93
2022-12-18T13:04:26.843Z,8.27
2022-12-18T13:07:05.438Z,9.15
2022-12-18T13:09:36.818Z,7.73
2022-12-18T13:12:30.436Z,8.68
2022-12-18T13:15:31.555Z,7.72
2022-12-18T13:18:09.961Z,7.97
2022-12-18T13:20:41.297Z,8.70
2022-12-18T13:23:27.144Z,8.07
2022-12-18T13:25:58.643Z,8.57
2022-12-18T13:28:35.005Z,8.82
2022-12-18T13:31:04.049Z,8.95
2022-12-18T13:33:31.382Z,9.15
2022-12-18T13:36:10.973Z,8.80
2022-12-18T13:38:40.542Z,8.85
2022-12-18T13:41:20.021Z,9.00
2022-12-18T13:43:50.157Z,9.15
2022-12-18T13:46:25.398Z,9.32
2022-12-18T13:49:39.218Z,8.03
2022-12-18T13:52:28.742Z,9.10
2022-12-18T13:54:58.780Z,9.35
2022-12-18T13:57:44.760Z,11.55
2022-12-18T14:00:30.468Z,11.15
2022-12-18T14:02:59.378Z,10.90
2022-12-18T14:05:38.648Z,12.57
2022-12-18T14:08:15.346Z,12.60
2022-12-18T14:10:49.160Z,10.70
2022-12-18T14:13:33.159Z,12.18
2022-12-18T14:16:04.365Z,12.77
2022-12-18T14:18:35.153Z,12.25
2022-12-18T14:21:05.120Z,13.70
2022-12-18T14:23:37.635Z,14.00
2022-12-18T14:26:24.214Z,12.43
2022-12-18T14:28:52.285Z,13.00
2022-12-18T14:31:25.319Z,13.30
2022-12-18T14:33:54.361Z,13.38
2022-12-18T14:36:27.505Z,14.05
2022-12-18T14:38:57.718Z,13.68
2022-12-18T14:41:27.071Z,13.10
2022-12-18T14:43:55.800Z,13.38
2022-12-18T14:46:43.732Z,13.50
2022-12-18T14:49:23.606Z,13.88
2022-12-18T14:51:57.554Z,14.60
2022-12-18T14:54:30.667Z,13.93
2022-12-18T14:56:58.040Z,13.35
2022-12-18T14:59:27.148Z,14.87
2022-12-18T15:01:54.952Z,13.62
2022-12-18T15:04:37.842Z,13.07
2022-12-18T15:07:12.385Z,11.47
2022-12-18T15:09:41.850Z,13.38
2022-12-18T15:12:34.776Z,13.18
2022-12-18T15:15:03.132Z,12.37
2022-12-18T15:17:31.366Z,13.07
2022-12-18T15:20:04.429Z,12.73
2022-12-18T15:22:36.674Z,13.20
2022-12-18T15:25:25.302Z,13.62
2022-12-18T15:27:56.165Z,12.98
2022-12-18T15:30:24.883Z,12.75
2022-12-18T15:33:13.276Z,12.53
2022-12-18T15:35:46.661Z,12.98
2022-12-18T15:38:14.797Z,12.60
2022-12-18T15:40:42.534Z,13.52
2022-12-18T15:43:29.595Z,13.32
2022-12-18T15:45:57.416Z,11.73
2022-12-18T15:48:24.966Z,12.57
2022-12-18T15:50:54.818Z,13.30
2022-12-18T15:53:22.866Z,13.02
2022-12-18T15:56:09.210Z,12.85
2022-12-18T15:58:37.147Z,12.53
2022-12-18T16:01:05.311Z,13.93
2022-12-18T16:03:33.165Z,12.57
2022-12-18T16:06:03.018Z,13.68
2022-12-18T16:08:31.819Z,13.15
2022-12-18T16:10:59.593Z,12.83
2022-12-18T16:13:26.946Z,12.27
2022-12-18T16:15:54.453Z,13.32
2022-12-18T16:18:22.522Z,14.15
2022-12-18T16:20:50.140Z,13.35
2022-12-18T16:23:17.531Z,13.07
2022-12-18T16:25:45.309Z,11.55
2022-12-18T16:28:12.775Z,13.27
2022-12-18T16:30:41.367Z,12.63
2022-12-18T16:33:12.165Z,12.88
2022-12-18T16:35:39.605Z,13.70
2022-12-18T16:38:07.130Z,12.40
2022-12-18T16:40:54.782Z,13.50
2022-12-18T16:43:22.226Z,14.27
2022-12-18T16:45:50.832Z,16.17
2022-12-18T16:48:19.342Z,14.80
2022-12-18T16:50:46.998Z,13.30
2022-12-18T16:53:14.774Z,14.38
2022-12-18T16:55:42.629Z,13.60
2022-12-18T16:58:10.151Z,14.68
2022-12-18T17:00:39.194Z,12.97
2022-12-18T17:03:06.862Z,14.30
2022-12-18T17:05:35.325Z,13.62
2022-12-18T17:08:03.061Z,12.05
2022-12-18T17:10:31.205Z,13.98
2022-12-18T17:12:58.671Z,12.83
2022-12-18T17:15:26.493Z,12.65
2022-12-18T17:17:53.901Z,14.52
2022-12-18T17:20:22.946Z,14.13
2022-12-18T17:22:50.629Z,12.75
2022-12-18T17:25:18.025Z,12.43
2022-12-18T17:27:45.464Z,12.88
2022-12-18T17:30:13.633Z,12.80
2022-12-18T17:32:41.141Z,12.50
2022-12-18T17:35:08.939Z,13.80
2022-12-18T17:37:36.747Z,14.57
2022-12-18T17:40:04.665Z,13.40
2022-12-18T17:42:32.151Z,13.27
2022-12-18T17:44:59.922Z,13.38
2022-12-18T17:47:27.376Z,15.05
2022-12-18T17:49:55.006Z,13.30
2022-12-18T17:52:23.648Z,12.40
2022-12-18T17:54:51.066Z,14.02
2022-12-18T17:57:18.822Z,13.52
2022-12-18T17:59:46.590Z,14.48
2022-12-18T18:02:14.174Z,12.80
2022-12-18T18:04:42.002Z,14.70
2022-12-18T18:07:10.182Z,15.50
2022-12-18T18:09:38.076Z,15.90
2022-12-18T18:12:24.634Z,14.02
2022-12-18T18:14:52.876Z,16.00
2022-12-18T18:17:20.771Z,14.27
2022-12-18T18:19:49.449Z,15.55
2022-12-18T18:22:17.351Z,14.02
2022-12-18T18:24:46.958Z,13.80
2022-12-18T18:27:15.110Z,14.70
2022-12-18T18:29:42.542Z,16.90
2022-12-18T18:32:10.385Z,14.02
2022-12-18T18:34:40.896Z,13.55
2022-12-18T18:37:10.001Z,14.80
2022-12-18T18:39:37.791Z,14.67
2022-12-18T18:42:05.436Z,14.65
2022-12-18T18:44:32.887Z,14.98
2022-12-18T18:47:00.646Z,13.90
2022-12-18T18:49:29.992Z,14.35
2022-12-18T18:51:57.868Z,13.73
2022-12-18T18:54:26.110Z,14.07
2022-12-18T18:57:19.440Z,13.93
2022-12-18T18:59:42.315Z,13.55
2022-12-18T19:02:13.399Z,14.38
2022-12-18T19:04:46.199Z,13.67
2022-12-18T19:07:28.113Z,14.05
2022-12-18T19:10:05.151Z,13.65
2022-12-18T19:12:52.932Z,13.77
2022-12-18T19:15:22.342Z,14.18
2022-12-18T19:17:50.114Z,14.70
2022-12-18T19:20:18.290Z,12.37
2022-12-18T19:22:55.073Z,13.77
2022-12-18T19:25:38.232Z,13.93
2022-12-18T19:28:21.565Z,13.10
2022-12-18T19:30:51.457Z,14.13
2022-12-18T19:33:44.585Z,14.48
2022-12-18T19:36:23.205Z,14.73
2022-12-18T19:38:52.618Z,14.15
2022-12-18T19:41:21.578Z,14.73
2022-12-18T19:43:50.605Z,13.90
2022-12-18T19:46:22.871Z,14.27
2022-12-18T19:48:50.846Z,13.23
2022-12-18T19:51:22.411Z,15.43
2022-12-18T19:53:53.667Z,14.25
2022-12-18T19:56:26.877Z,15.00
2022-12-18T19:58:55.483Z,16.12
2022-12-18T20:01:24.972Z,14.70
2022-12-18T20:03:54.604Z,15.30
2022-12-18T20:06:26.077Z,14.93
2022-12-18T20:08:57.678Z,13.77
2022-12-18T20:11:30.174Z,14.45
2022-12-18T20:13:58.723Z,13.95
2022-12-18T20:16:26.249Z,15.23
2022-12-18T20:18:56.202Z,15.05
2022-12-18T20:21:25.345Z,14.77
2022-12-18T20:23:54.516Z,14.95
2022-12-18T20:26:23.058Z,14.20
2022-12-18T20:28:50.825Z,14.77
2022-12-18T20:31:18.383Z,15.43
2022-12-18T20:33:48.727Z,13.00
2022-12-18T20:36:22.372Z,14.63
2022-12-18T20:38:51.922Z,14.65
2022-12-18T20:41:23.605Z,14.45
2022-12-18T20:43:51.566Z,13.65
2022-12-18T20:46:19.443Z,14.53
2022-12-18T20:48:47.876Z,12.25
2022-12-18T20:51:17.949Z,12.77
2022-12-18T20:53:46.465Z,13.45
2022-12-18T20:56:23.011Z,13.02
2022-12-18T20:58:54.914Z,12.83
2022-12-18T21:01:24.190Z,12.88
2022-12-18T21:03:52.309Z,11.98
2022-12-18T21:06:22.154Z,14.18
2022-12-18T21:08:50.021Z,13.07
2022-12-18T21:11:50.139Z,12.60
2022-12-18T21:14:19.643Z,12.37
2022-12-18T21:16:48.557Z,12.35
2022-12-18T21:19:18.923Z,11.60
2022-12-18T21:21:47.452Z,13.55
2022-12-18T21:24:15.721Z,12.87
2022-12-18T21:26:46.035Z,12.07
2022-12-18T21:29:16.700Z,13.02
2022-12-18T21:31:45.523Z,13.48
2022-12-18T21:34:21.791Z,13.10
2022-12-18T21:36:49.745Z,14.10
2022-12-18T21:39:18.205Z,14.00
2022-12-18T21:42:05.797Z,14.13
2022-12-18T21:44:41.726Z,12.60
2022-12-18T21:47:21.908Z,13.20
2022-12-18T21:49:54.377Z,12.33
2022-12-18T21:52:31.358Z,13.35
2022-12-18T21:55:09.103Z,14.48
2022-12-18T21:57:39.268Z,12.18
2022-12-18T22:00:10.706Z,12.90
2022-12-18T22:02:44.715Z,12.33
2022-12-18T22:05:12.687Z,14.48
2022-12-18T22:07:40.853Z,12.05
2022-12-18T22:10:09.159Z,11.70
2022-12-18T22:12:44.038Z,12.73
2022-12-18T22:15:21.205Z,12.40
2022-12-18T22:17:59.675Z,13.23
2022-12-18T22:20:30.030Z,13.00
2022-12-18T22:22:58.302Z,12.98
2022-12-18T22:25:25.833Z,13.52
2022-12-18T22:28:12.027Z,12.00
2022-12-18T22:30:39.748Z,13.10
2022-12-18T22:33:07.438Z,13.30
2022-12-18T22:35:34.916Z,12.13
2022-12-18T22:38:03.406Z,11.77
2022-12-18T22:40:31.150Z,11.80
2022-12-18T22:42:58.684Z,12.35
2022-12-18T22:45:26.814Z,13.23
2022-12-18T22:47:54.538Z,12.07
2022-12-18T22:50:21.977Z,12.98
2022-12-18T22:52:49.373Z,13.23
2022-12-18T22:55:17.197Z,10.65
2022-12-18T22:57:48.591Z,11.52
2022-12-18T23:00:24.231Z,11.30
2022-12-18T23:02:59.356Z,12.82
2022-12-18T23:05:31.703Z,12.03
2022-12-18T23:07:59.521Z,12.40
2022-12-18T23:10:28.227Z,12.50
2022-12-18T23:12:55.840Z,10.55
2022-12-18T23:15:27.758Z,11.45
2022-12-18T23:17:58.401Z,11.13
2022-12-18T23:20:27.613Z,11.20
2022-12-18T23:22:55.230Z,12.00
2022-12-18T23:25:23.182Z,12.50
2022-12-18T23:27:50.729Z,13.07
2022-12-18T23:30:18.210Z,12.23
2022-12-18T23:32:45.949Z,14.55
2022-12-18T23:35:15.642Z,13.60
2022-12-18T23:38:00.538Z,14.30
2022-12-18T23:40:29.599Z,14.57
2022-12-18T23:42:58.610Z,12.57
2022-12-18T23:45:26.050Z,12.98
2022-12-18T23:47:53.734Z,14.70
2022-12-18T23:50:25.410Z,13.82
2022-12-18T23:53:04.592Z,14.60
2022-12-18T23:55:37.391Z,14.10
2022-12-18T23:58:05.147Z,12.27
